createdAt,value
2018-11-28T00:00:30.678Z,2.90
2018-11-28T00:03:01.765Z,2.90
2018-11-28T00:05:32.123Z,3.00
2018-11-28T00:08:02.506Z,2.90
2018-11-28T00:10:33.061Z,2.90
2018-11-28T00:13:03.612Z,2.90
2018-11-28T00:15:33.805Z,2.90
2018-11-28T00:18:04.034Z,2.90
2018-11-28T00:20:34.037Z,2.90
2018-11-28T00:23:04.423Z,2.90
2018-11-28T00:25:34.463Z,3.00
2018-11-28T00:28:04.506Z,3.00
2018-11-28T00:30:34.507Z,3.00
2018-11-28T00:33:04.898Z,3.00
2018-11-28T00:35:34.909Z,3.00
2018-11-28T00:38:05.194Z,3.00
2018-11-28T00:40:35.219Z,3.00
2018-11-28T00:43:05.874Z,3.00
2018-11-28T00:45:35.921Z,2.90
2018-11-28T00:48:06.349Z,3.00
2018-11-28T00:50:36.548Z,3.00
2018-11-28T00:53:06.971Z,3.00
2018-11-28T00:55:37.005Z,3.00
2018-11-28T00:58:07.027Z,3.00
2018-11-28T01:00:37.254Z,3.00
2018-11-28T01:03:07.648Z,3.00
2018-11-28T01:05:37.643Z,2.90
2018-11-28T01:08:08.028Z,3.00
2018-11-28T01:10:38.250Z,3.00
2018-11-28T01:13:08.286Z,3.10
2018-11-28T01:15:38.290Z,3.00
2018-11-28T01:18:08.339Z,3.00
2018-11-28T01:20:38.356Z,3.10
2018-11-28T01:23:08.409Z,3.10
2018-11-28T01:25:38.463Z,3.10
2018-11-28T01:28:08.469Z,3.10
2018-11-28T01:30:38.500Z,3.10
2018-11-28T01:33:08.516Z,3.10
2018-11-28T01:35:38.545Z,3.10
2018-11-28T01:38:08.536Z,3.10
2018-11-28T01:40:38.575Z,3.10
2018-11-28T01:43:08.589Z,3.10
2018-11-28T01:45:38.613Z,3.00
2018-11-28T01:48:08.643Z,3.00
2018-11-28T01:50:38.641Z,3.00
2018-11-28T01:53:08.690Z,3.00
2018-11-28T01:55:38.721Z,3.00
2018-11-28T01:58:08.729Z,3.00
2018-11-28T02:00:38.951Z,3.00
2018-11-28T02:03:08.993Z,3.00
2018-11-28T02:05:39.018Z,3.10
2018-11-28T02:08:09.017Z,3.10
2018-11-28T02:10:39.064Z,3.10
2018-11-28T02:13:09.197Z,3.10
2018-11-28T02:15:39.206Z,3.10
2018-11-28T02:18:09.242Z,3.10
2018-11-28T02:20:39.238Z,3.20
2018-11-28T02:23:09.293Z,3.20
2018-11-28T02:25:39.300Z,3.20
2018-11-28T02:28:09.313Z,3.20
2018-11-28T02:30:39.339Z,3.20
2018-11-28T02:33:09.519Z,3.20
2018-11-28T02:35:39.542Z,3.10
2018-11-28T02:38:09.682Z,3.10
2018-11-28T02:40:39.890Z,3.20
2018-11-28T02:43:09.905Z,3.20
2018-11-28T02:45:39.937Z,3.20
2018-11-28T02:48:09.937Z,3.10
2018-11-28T02:50:39.975Z,3.20
2018-11-28T02:53:10.024Z,3.20
2018-11-28T02:55:40.067Z,3.20
2018-11-28T02:58:10.341Z,3.20
2018-11-28T03:00:40.366Z,3.30
2018-11-28T03:03:10.433Z,3.30
2018-11-28T03:05:40.622Z,3.40
2018-11-28T03:08:10.661Z,3.40
2018-11-28T03:10:41.023Z,3.50
2018-11-28T03:13:11.369Z,3.40
2018-11-28T03:15:43.879Z,3.50
2018-11-28T03:18:13.928Z,3.50
2018-11-28T03:20:44.372Z,3.50
2018-11-28T03:23:14.498Z,3.50
2018-11-28T03:25:44.515Z,3.50
2018-11-28T03:28:14.553Z,3.60
2018-11-28T03:30:44.566Z,3.50
2018-11-28T03:33:14.799Z,3.50
2018-11-28T03:35:45.006Z,3.50
2018-11-28T03:38:15.039Z,3.50
2018-11-28T03:40:45.070Z,3.50
2018-11-28T03:43:15.273Z,3.50
2018-11-28T03:45:45.522Z,3.50
2018-11-28T03:48:19.795Z,3.50
2018-11-28T03:50:50.109Z,3.50
2018-11-28T03:53:20.311Z,3.50
2018-11-28T03:55:50.338Z,3.50
2018-11-28T03:58:23.365Z,3.50
2018-11-28T04:00:53.726Z,3.50
2018-11-28T04:03:23.915Z,3.50
2018-11-28T04:05:54.165Z,3.50
2018-11-28T04:08:24.353Z,3.50
2018-11-28T04:10:54.406Z,3.60
2018-11-28T04:13:24.438Z,3.50
2018-11-28T04:15:54.433Z,3.50
2018-11-28T04:18:24.467Z,3.50
2018-11-28T04:20:54.487Z,3.60
2018-11-28T04:23:24.533Z,3.60
2018-11-28T04:25:54.549Z,3.60
2018-11-28T04:28:24.576Z,3.60
2018-11-28T04:30:54.605Z,3.60
2018-11-28T04:33:24.630Z,3.50
2018-11-28T04:35:54.643Z,3.50
2018-11-28T04:38:24.873Z,3.50
2018-11-28T04:40:55.094Z,3.50
2018-11-28T04:43:25.293Z,3.60
2018-11-28T04:45:55.326Z,3.60
2018-11-28T04:48:25.368Z,3.60
2018-11-28T04:50:55.389Z,3.70
2018-11-28T04:53:25.423Z,3.70
2018-11-28T04:55:55.643Z,3.70
2018-11-28T04:58:25.662Z,3.70
2018-11-28T05:00:56.019Z,3.70
2018-11-28T05:03:26.032Z,3.70
2018-11-28T05:05:56.060Z,3.70
2018-11-28T05:08:26.242Z,3.70
2018-11-28T05:10:56.449Z,3.70
2018-11-28T05:13:26.479Z,3.70
2018-11-28T05:15:56.503Z,3.70
2018-11-28T05:18:26.554Z,3.70
2018-11-28T05:20:56.553Z,3.70
2018-11-28T05:23:26.566Z,3.60
2018-11-28T05:25:56.615Z,3.60
2018-11-28T05:28:26.637Z,3.70
2018-11-28T05:30:56.639Z,3.70
2018-11-28T05:33:26.874Z,3.70
2018-11-28T05:35:57.206Z,3.60
2018-11-28T05:38:27.235Z,3.70
2018-11-28T05:40:57.290Z,3.70
2018-11-28T05:43:27.325Z,3.70
2018-11-28T05:45:57.390Z,3.70
2018-11-28T05:48:27.409Z,3.70
2018-11-28T05:50:57.415Z,3.70
2018-11-28T05:53:27.425Z,3.80
2018-11-28T05:55:57.424Z,3.80
2018-11-28T05:58:27.493Z,3.80
2018-11-28T06:00:57.513Z,3.80
2018-11-28T06:03:27.542Z,3.80
2018-11-28T06:05:57.545Z,3.80
2018-11-28T06:08:27.584Z,3.80
2018-11-28T06:10:57.615Z,3.80
2018-11-28T06:13:27.614Z,3.80
2018-11-28T06:15:57.655Z,3.90
2018-11-28T06:18:27.685Z,3.80
2018-11-28T06:20:57.713Z,3.90
2018-11-28T06:23:27.713Z,3.80
2018-11-28T06:25:57.744Z,3.90
2018-11-28T06:28:27.770Z,3.90
2018-11-28T06:30:57.807Z,3.90
2018-11-28T06:33:27.985Z,3.90
2018-11-28T06:35:58.341Z,3.90
2018-11-28T06:38:28.549Z,3.90
2018-11-28T06:40:58.591Z,4.00
2018-11-28T06:43:28.807Z,4.00
2018-11-28T06:45:58.828Z,3.90
2018-11-28T06:48:29.160Z,3.90
2018-11-28T06:50:59.176Z,4.00
2018-11-28T06:53:29.225Z,4.00
2018-11-28T06:55:59.244Z,4.00
2018-11-28T06:58:29.306Z,4.00
2018-11-28T07:00:59.305Z,4.00
2018-11-28T07:03:29.345Z,4.00
2018-11-28T07:05:59.365Z,4.00
2018-11-28T07:08:29.397Z,4.00
2018-11-28T07:10:59.413Z,4.00
2018-11-28T07:13:29.446Z,4.00
2018-11-28T07:15:59.449Z,4.00
2018-11-28T07:18:40.930Z,4.00
2018-11-28T07:21:10.938Z,4.00
2018-11-28T07:23:40.974Z,4.00
2018-11-28T07:26:10.985Z,4.00
2018-11-28T07:28:41.021Z,4.00
2018-11-28T07:31:11.717Z,4.10
2018-11-28T07:33:41.749Z,4.10
2018-11-28T07:36:11.974Z,4.10
2018-11-28T07:38:42.294Z,4.10
2018-11-28T07:41:12.329Z,4.10
2018-11-28T07:43:42.342Z,4.10
2018-11-28T07:46:12.914Z,4.20
2018-11-28T07:48:42.922Z,4.20
2018-11-28T07:51:12.973Z,4.30
2018-11-28T07:53:43.036Z,4.40
2018-11-28T07:56:13.041Z,4.40
2018-11-28T07:58:43.094Z,4.50
2018-11-28T08:01:13.097Z,4.50
2018-11-28T08:03:43.137Z,4.50
2018-11-28T08:06:13.308Z,4.60
2018-11-28T08:08:43.349Z,4.60
2018-11-28T08:11:13.345Z,4.70
2018-11-28T08:13:43.366Z,4.70
2018-11-28T08:16:13.758Z,4.70
2018-11-28T08:18:43.770Z,4.70
2018-11-28T08:21:13.806Z,4.70
2018-11-28T08:23:43.834Z,4.70
2018-11-28T08:26:13.877Z,4.70
2018-11-28T08:28:44.217Z,4.80
2018-11-28T08:31:14.440Z,4.80
2018-11-28T08:33:44.632Z,4.80
2018-11-28T08:36:14.841Z,4.90
2018-11-28T08:38:44.875Z,4.90
2018-11-28T08:41:14.944Z,4.90
2018-11-28T08:43:45.273Z,5.00
2018-11-28T08:46:15.306Z,5.00
2018-11-28T08:48:45.328Z,5.00
2018-11-28T08:51:15.369Z,5.00
2018-11-28T08:53:45.426Z,5.10
2018-11-28T08:56:15.638Z,5.00
2018-11-28T08:58:45.644Z,5.00
2018-11-28T09:01:15.674Z,5.10
2018-11-28T09:03:45.719Z,5.10
2018-11-28T09:06:15.766Z,5.10
2018-11-28T09:08:45.786Z,5.10
2018-11-28T09:11:16.169Z,5.10
2018-11-28T09:13:46.183Z,5.10
2018-11-28T09:16:16.229Z,5.10
2018-11-28T09:18:46.249Z,5.20
2018-11-28T09:21:16.281Z,5.20
2018-11-28T09:23:46.307Z,5.20
2018-11-28T09:26:18.766Z,5.30
2018-11-28T09:28:48.793Z,5.30
2018-11-28T09:31:19.158Z,5.30
2018-11-28T09:33:49.335Z,5.30
2018-11-28T09:36:19.370Z,5.40
2018-11-28T09:38:49.375Z,5.40
2018-11-28T09:41:19.434Z,5.40
2018-11-28T09:43:49.809Z,5.50
2018-11-28T09:46:20.369Z,5.60
2018-11-28T09:48:50.389Z,5.60
2018-11-28T09:51:20.414Z,5.60
2018-11-28T09:53:50.434Z,5.60
2018-11-28T09:56:20.796Z,5.70
2018-11-28T09:58:50.808Z,5.60
2018-11-28T10:01:21.005Z,5.70
2018-11-28T10:03:51.256Z,5.70
2018-11-28T10:06:21.271Z,5.70
2018-11-28T10:08:51.308Z,5.80
2018-11-28T10:11:21.339Z,5.80
2018-11-28T10:13:51.366Z,5.80
2018-11-28T10:16:21.545Z,5.90
2018-11-28T10:18:51.767Z,5.90
2018-11-28T10:21:21.794Z,5.90
2018-11-28T10:23:52.185Z,5.90
2018-11-28T10:26:22.394Z,5.90
2018-11-28T10:28:52.431Z,5.90
2018-11-28T10:31:22.457Z,5.90
2018-11-28T10:33:53.196Z,5.90
2018-11-28T10:36:23.213Z,5.90
2018-11-28T10:38:53.237Z,5.90
2018-11-28T10:41:23.296Z,5.90
2018-11-28T10:43:53.817Z,6.00
2018-11-28T10:46:23.841Z,6.00
2018-11-28T10:48:53.861Z,6.00
2018-11-28T10:51:24.087Z,6.00
2018-11-28T10:53:54.137Z,6.00
2018-11-28T10:56:24.155Z,6.00
2018-11-28T10:58:54.321Z,6.10
2018-11-28T11:01:26.140Z,6.10
2018-11-28T11:04:01.960Z,6.10
2018-11-28T11:06:37.478Z,6.10
2018-11-28T11:09:14.428Z,6.20
2018-11-28T11:12:48.556Z,6.30
2018-11-28T11:15:18.567Z,6.30
2018-11-28T11:17:48.589Z,6.40
2018-11-28T11:20:18.643Z,6.40
2018-11-28T11:22:48.991Z,6.50
2018-11-28T11:25:19.005Z,6.50
2018-11-28T11:27:49.054Z,6.50
2018-11-28T11:30:19.092Z,6.50
2018-11-28T11:32:49.182Z,6.50
2018-11-28T11:35:19.154Z,6.50
2018-11-28T11:37:48.026Z,6.50
2018-11-28T11:40:18.878Z,6.60
2018-11-28T11:42:48.881Z,6.60
2018-11-28T11:45:19.222Z,6.60
2018-11-28T11:47:49.273Z,6.60
2018-11-28T11:50:19.622Z,6.60
2018-11-28T11:52:49.680Z,6.60
2018-11-28T11:55:20.481Z,6.60
2018-11-28T11:57:50.629Z,6.60
2018-11-28T12:00:23.045Z,6.70
2018-11-28T12:03:12.375Z,6.60
2018-11-28T12:05:51.547Z,6.70
2018-11-28T12:08:22.122Z,6.80
2018-11-28T12:10:52.333Z,6.80
2018-11-28T12:13:23.043Z,6.80
2018-11-28T12:15:53.190Z,6.90
2018-11-28T12:18:23.109Z,6.90
2018-11-28T12:20:54.593Z,7.00
2018-11-28T12:23:24.967Z,7.00
2018-11-28T12:25:55.186Z,7.00
2018-11-28T12:28:25.242Z,7.10
2018-11-28T12:30:55.557Z,7.10
2018-11-28T12:33:25.581Z,7.20
2018-11-28T12:35:55.602Z,7.20
2018-11-28T12:38:25.850Z,7.20
2018-11-28T12:40:56.209Z,7.20
2018-11-28T12:43:26.935Z,7.20
2018-11-28T12:45:56.941Z,7.20
2018-11-28T12:48:27.179Z,7.20
2018-11-28T12:50:57.210Z,7.20
2018-11-28T12:53:27.625Z,7.20
2018-11-28T12:55:57.672Z,7.20
2018-11-28T12:58:27.697Z,7.20
2018-11-28T13:00:57.724Z,7.20
2018-11-28T13:03:27.923Z,7.20
2018-11-28T13:05:57.925Z,7.20
2018-11-28T13:08:28.349Z,7.30
2018-11-28T13:10:58.381Z,7.30
2018-11-28T13:13:28.417Z,7.30
2018-11-28T13:15:58.463Z,7.30
2018-11-28T13:18:28.463Z,7.30
2018-11-28T13:20:59.058Z,7.30
2018-11-28T13:23:29.297Z,7.30
2018-11-28T13:25:59.333Z,7.30
2018-11-28T13:28:29.352Z,7.20
2018-11-28T13:31:00.302Z,7.20
2018-11-28T13:33:30.645Z,7.20
2018-11-28T13:36:00.678Z,7.20
2018-11-28T13:38:30.659Z,7.20
2018-11-28T13:41:00.887Z,7.20
2018-11-28T13:43:30.887Z,7.20
2018-11-28T13:46:00.917Z,7.20
2018-11-28T13:48:37.541Z,7.30
2018-11-28T13:51:07.765Z,7.30
2018-11-28T13:53:37.774Z,7.30
2018-11-28T13:58:38.037Z,7.30
2018-11-28T14:01:08.094Z,7.30
2018-11-28T14:03:38.128Z,7.30
2018-11-28T14:06:09.073Z,7.30
2018-11-28T14:08:39.644Z,7.30
2018-11-28T14:11:10.241Z,7.30
2018-11-28T14:13:40.233Z,7.20
2018-11-28T14:16:10.267Z,7.30
2018-11-28T14:18:40.308Z,7.30
2018-11-28T14:21:11.218Z,7.20
2018-11-28T14:23:41.826Z,7.20
2018-11-28T14:26:12.378Z,7.20
2018-11-28T14:28:43.346Z,7.20
2018-11-28T14:31:13.909Z,7.20
2018-11-28T14:33:43.950Z,7.30
2018-11-28T14:36:14.309Z,7.30
2018-11-28T14:38:44.348Z,7.30
2018-11-28T14:41:14.932Z,7.20
2018-11-28T14:43:45.529Z,7.20
2018-11-28T14:46:16.097Z,7.20
2018-11-28T14:48:46.116Z,7.20
2018-11-28T14:51:16.709Z,7.20
2018-11-28T14:53:48.139Z,7.20
2018-11-28T14:56:16.748Z,7.20
2018-11-28T14:58:46.814Z,7.20
2018-11-28T15:01:16.867Z,7.20
2018-11-28T15:03:47.484Z,7.20
2018-11-28T15:06:24.921Z,7.10
2018-11-28T15:09:01.017Z,7.20
2018-11-28T15:11:32.126Z,7.10
2018-11-28T15:14:02.722Z,7.10
2018-11-28T15:16:33.289Z,7.10
2018-11-28T15:19:04.232Z,7.00
2018-11-28T15:21:34.249Z,7.00
2018-11-28T15:24:05.172Z,7.00
2018-11-28T15:26:35.769Z,7.00
2018-11-28T15:29:06.561Z,7.00
2018-11-28T15:31:37.154Z,7.00
2018-11-28T15:34:07.567Z,7.00
2018-11-28T15:36:37.913Z,6.90
2018-11-28T15:39:09.458Z,6.90
2018-11-28T15:41:39.786Z,6.90
2018-11-28T15:44:10.154Z,6.90
2018-11-28T15:46:40.365Z,6.90
2018-11-28T15:49:10.408Z,6.90
2018-11-28T15:51:40.422Z,6.80
2018-11-28T15:54:10.438Z,6.80
2018-11-28T15:56:40.470Z,6.80
2018-11-28T15:59:10.846Z,6.80
2018-11-28T16:01:40.862Z,6.70
2018-11-28T16:04:11.233Z,6.70
2018-11-28T16:06:41.231Z,6.60
2018-11-28T16:09:16.738Z,6.60
2018-11-28T16:11:46.760Z,6.60
2018-11-28T16:14:16.935Z,6.60
2018-11-28T16:16:46.997Z,6.60
2018-11-28T16:19:17.094Z,6.50
2018-11-28T16:21:47.098Z,6.50
2018-11-28T16:24:17.451Z,6.50
2018-11-28T16:26:47.492Z,6.60
2018-11-28T16:29:17.532Z,6.50
2018-11-28T16:31:47.529Z,6.50
2018-11-28T16:34:17.538Z,6.40
2018-11-28T16:36:47.610Z,6.40
2018-11-28T16:39:17.626Z,6.40
2018-11-28T16:41:47.710Z,6.40
2018-11-28T16:44:17.719Z,6.40
2018-11-28T16:46:47.750Z,6.40
2018-11-28T16:49:17.752Z,6.40
2018-11-28T16:51:47.798Z,6.30
2018-11-28T16:54:17.801Z,6.30
2018-11-28T16:56:47.824Z,6.40
2018-11-28T16:59:17.848Z,6.30
2018-11-28T17:01:48.695Z,6.30
2018-11-28T17:04:21.216Z,6.30
2018-11-28T17:06:51.435Z,6.30
2018-11-28T17:09:21.459Z,6.30
2018-11-28T17:11:51.510Z,6.30
2018-11-28T17:14:21.537Z,6.30
2018-11-28T17:16:51.578Z,6.20
2018-11-28T17:19:21.610Z,6.20
2018-11-28T17:21:51.638Z,6.20
2018-11-28T17:24:21.681Z,6.20
2018-11-28T17:26:51.729Z,6.20
2018-11-28T17:29:21.737Z,6.30
2018-11-28T17:31:51.752Z,6.20
2018-11-28T17:34:21.788Z,6.20
2018-11-28T17:36:51.793Z,6.20
2018-11-28T17:39:21.834Z,6.20
2018-11-28T17:41:52.214Z,6.20
2018-11-28T17:44:22.404Z,6.20
2018-11-28T17:46:52.441Z,6.20
2018-11-28T17:49:27.861Z,6.20
2018-11-28T17:51:52.795Z,6.20
2018-11-28T17:54:22.853Z,6.20
2018-11-28T17:56:52.861Z,6.20
2018-11-28T17:59:22.890Z,6.20
2018-11-28T18:01:52.898Z,6.20
2018-11-28T18:04:22.934Z,6.20
2018-11-28T18:06:52.970Z,6.20
2018-11-28T18:09:22.973Z,6.20
2018-11-28T18:11:53.005Z,6.20
2018-11-28T18:14:23.041Z,6.20
2018-11-28T18:16:53.077Z,6.20
2018-11-28T18:19:23.117Z,6.20
2018-11-28T18:21:53.178Z,6.20
2018-11-28T18:24:23.149Z,6.20
2018-11-28T18:26:53.170Z,6.20
2018-11-28T18:29:23.158Z,6.20
2018-11-28T18:31:53.185Z,6.20
2018-11-28T18:34:23.174Z,6.20
2018-11-28T18:36:53.198Z,6.20
2018-11-28T18:39:23.534Z,6.20
2018-11-28T18:41:53.587Z,6.20
2018-11-28T18:44:23.589Z,6.30
2018-11-28T18:46:53.621Z,6.30
2018-11-28T18:49:23.634Z,6.30
2018-11-28T18:51:53.661Z,6.30
2018-11-28T18:54:23.742Z,6.30
2018-11-28T18:56:53.788Z,6.30
2018-11-28T18:59:23.824Z,6.30
2018-11-28T19:01:54.186Z,6.20
2018-11-28T19:04:24.180Z,6.20
2018-11-28T19:06:54.397Z,6.30
2018-11-28T19:09:30.191Z,6.30
2018-11-28T19:12:00.264Z,6.30
2018-11-28T19:14:30.227Z,6.30
2018-11-28T19:17:00.417Z,6.30
2018-11-28T19:19:30.418Z,6.30
2018-11-28T19:22:00.631Z,6.30
2018-11-28T19:24:30.874Z,6.30
2018-11-28T19:27:00.905Z,6.30
2018-11-28T19:29:30.963Z,6.30
2018-11-28T19:32:00.992Z,6.30
2018-11-28T19:34:31.025Z,6.30
2018-11-28T19:37:01.021Z,6.20
2018-11-28T19:39:31.065Z,6.20
2018-11-28T19:42:01.069Z,6.30
2018-11-28T19:44:31.102Z,6.30
2018-11-28T19:47:01.147Z,6.30
2018-11-28T19:49:31.178Z,6.30
2018-11-28T19:52:01.184Z,6.30
2018-11-28T19:54:35.884Z,6.30
2018-11-28T19:57:09.677Z,6.30
2018-11-28T19:59:43.107Z,6.30
2018-11-28T20:02:16.420Z,6.40
2018-11-28T20:04:49.936Z,6.40
2018-11-28T20:07:23.061Z,6.30
2018-11-28T20:09:59.737Z,6.30
2018-11-28T20:12:35.213Z,6.30
2018-11-28T20:15:12.258Z,6.30
2018-11-28T20:17:45.899Z,6.30
2018-11-28T20:20:19.490Z,6.30
2018-11-28T20:22:52.361Z,6.30
2018-11-28T20:25:24.904Z,6.30
2018-11-28T20:27:57.208Z,6.20
2018-11-28T20:30:36.887Z,6.30
2018-11-28T20:33:07.782Z,6.30
2018-11-28T20:35:38.605Z,6.30
2018-11-28T20:38:11.369Z,6.30
2018-11-28T20:40:41.418Z,6.20
2018-11-28T20:43:11.429Z,6.20
2018-11-28T20:45:41.470Z,6.20
2018-11-28T20:48:18.394Z,6.20
2018-11-28T20:50:48.757Z,6.10
2018-11-28T20:53:20.119Z,6.10
2018-11-28T20:55:50.515Z,6.10
2018-11-28T20:58:20.868Z,6.20
2018-11-28T21:00:51.443Z,6.20
2018-11-28T21:03:21.434Z,6.30
2018-11-28T21:05:52.335Z,6.30
2018-11-28T21:08:22.344Z,6.40
2018-11-28T21:10:52.510Z,6.40
2018-11-28T21:13:22.539Z,6.40
2018-11-28T21:15:53.097Z,6.40
2018-11-28T21:18:23.180Z,6.40
2018-11-28T21:20:53.194Z,6.30
2018-11-28T21:23:23.221Z,6.30
2018-11-28T21:25:53.573Z,6.40
2018-11-28T21:28:23.618Z,6.40
2018-11-28T21:30:53.668Z,6.40
2018-11-28T21:33:23.733Z,6.40
2018-11-28T21:35:54.122Z,6.40
2018-11-28T21:38:24.481Z,6.50
2018-11-28T21:40:54.509Z,6.40
2018-11-28T21:43:24.518Z,6.50
2018-11-28T21:45:54.592Z,6.40
2018-11-28T21:48:24.807Z,6.40
2018-11-28T21:50:55.184Z,6.50
2018-11-28T21:53:25.263Z,6.40
2018-11-28T21:55:55.485Z,6.50
2018-11-28T21:58:25.671Z,6.50
2018-11-28T22:00:56.056Z,6.50
2018-11-28T22:03:26.277Z,6.50
2018-11-28T22:05:56.608Z,6.60
2018-11-28T22:08:26.653Z,6.60
2018-11-28T22:10:56.654Z,6.60
2018-11-28T22:13:26.674Z,6.50
2018-11-28T22:15:56.674Z,6.50
2018-11-28T22:18:26.897Z,6.50
2018-11-28T22:20:56.902Z,6.50
2018-11-28T22:23:27.121Z,6.50
2018-11-28T22:25:57.144Z,6.60
2018-11-28T22:28:27.493Z,6.60
2018-11-28T22:30:57.517Z,6.60
2018-11-28T22:33:27.557Z,6.60
2018-11-28T22:35:57.585Z,6.60
2018-11-28T22:38:27.597Z,6.60
2018-11-28T22:40:57.612Z,6.60
2018-11-28T22:43:27.654Z,6.60
2018-11-28T22:45:57.718Z,6.60
2018-11-28T22:48:27.741Z,6.70
2018-11-28T22:50:57.746Z,6.60
2018-11-28T22:53:27.801Z,6.60
2018-11-28T22:55:57.790Z,6.70
2018-11-28T22:58:28.012Z,6.70
2018-11-28T23:01:03.540Z,6.70
2018-11-28T23:03:33.572Z,6.70
2018-11-28T23:06:03.945Z,6.60
2018-11-28T23:08:33.985Z,6.70
2018-11-28T23:11:04.560Z,6.70
2018-11-28T23:13:34.642Z,6.70
2018-11-28T23:16:05.269Z,6.70
2018-11-28T23:18:35.293Z,6.70
2018-11-28T23:21:05.930Z,6.80
2018-11-28T23:23:35.949Z,6.80
2018-11-28T23:26:06.926Z,6.90
2018-11-28T23:28:37.030Z,6.90
2018-11-28T23:31:07.597Z,6.90
2018-11-28T23:33:37.621Z,6.80
2018-11-28T23:36:07.621Z,6.80
2018-11-28T23:38:38.207Z,6.80
2018-11-28T23:41:08.946Z,6.90
2018-11-28T23:43:38.956Z,6.90
2018-11-28T23:46:09.519Z,6.90
2018-11-28T23:48:39.549Z,6.90
2018-11-28T23:51:09.591Z,6.80
2018-11-28T23:53:40.152Z,6.90
2018-11-28T23:56:10.736Z,6.90
2018-11-28T23:58:41.473Z,6.90
